sensor_id;sensor_type;location;lat;lon;timestamp;temperature;humidity
43810;DHT22;29440;48.208;11.162;2023-05-07T00:01:48;12.60;99.90
43810;DHT22;29440;48.208;11.162;2023-05-07T00:04:13;12.50;99.90
43810;DHT22;29440;48.208;11.162;2023-05-07T00:06:39;12.50;99.90
43810;DHT22;29440;48.208;11.162;2023-05-07T00:09:05;12.40;99.90
43810;DHT22;29440;48.208;11.162;2023-05-07T00:11:31;12.40;99.90
43810;DHT22;29440;48.208;11.162;2023-05-07T00:13:56;12.40;99.90
43810;DHT22;29440;48.208;11.162;2023-05-07T00:16:22;12.40;99.90
43810;DHT22;29440;48.208;11.162;2023-05-07T00:18:48;12.30;99.90
43810;DHT22;29440;48.208;11.162;2023-05-07T00:21:13;12.30;99.90
43810;DHT22;29440;48.208;11.162;2023-05-07T00:23:39;12.20;99.90
43810;DHT22;29440;48.208;11.162;2023-05-07T00:26:04;12.30;99.90
43810;DHT22;29440;48.208;11.162;2023-05-07T00:28:30;12.30;99.90
43810;DHT22;29440;48.208;11.162;2023-05-07T00:30:56;12.30;99.90
43810;DHT22;29440;48.208;11.162;2023-05-07T00:33:21;12.30;99.90
43810;DHT22;29440;48.208;11.162;2023-05-07T00:35:48;12.30;99.90
43810;DHT22;29440;48.208;11.162;2023-05-07T00:38:13;12.30;99.90
43810;DHT22;29440;48.208;11.162;2023-05-07T00:40:39;12.30;99.90
43810;DHT22;29440;48.208;11.162;2023-05-07T00:43:05;12.40;99.90
43810;DHT22;29440;48.208;11.162;2023-05-07T00:45:31;12.40;99.90
43810;DHT22;29440;48.208;11.162;2023-05-07T00:47:59;12.40;99.90
43810;DHT22;29440;48.208;11.162;2023-05-07T00:50:26;12.30;99.90
43810;DHT22;29440;48.208;11.162;2023-05-07T00:52:52;12.30;99.90
43810;DHT22;29440;48.208;11.162;2023-05-07T00:55:18;12.20;99.90
43810;DHT22;29440;48.208;11.162;2023-05-07T00:57:44;12.10;99.90
43810;DHT22;29440;48.208;11.162;2023-05-07T01:00:10;12.10;99.90
43810;DHT22;29440;48.208;11.162;2023-05-07T01:02:38;12.10;99.90
43810;DHT22;29440;48.208;11.162;2023-05-07T01:05:05;12.10;99.90
43810;DHT22;29440;48.208;11.162;2023-05-07T01:07:33;12.00;99.90
43810;DHT22;29440;48.208;11.162;2023-05-07T01:09:59;12.00;99.90
43810;DHT22;29440;48.208;11.162;2023-05-07T01:12:26;12.00;99.90
43810;DHT22;29440;48.208;11.162;2023-05-07T01:14:53;11.90;99.90
43810;DHT22;29440;48.208;11.162;2023-05-07T01:17:19;11.90;99.90
43810;DHT22;29440;48.208;11.162;2023-05-07T01:19:44;12.00;99.90
43810;DHT22;29440;48.208;11.162;2023-05-07T01:22:10;12.00;99.90
43810;DHT22;29440;48.208;11.162;2023-05-07T01:24:37;12.00;99.90
43810;DHT22;29440;48.208;11.162;2023-05-07T01:27:03;12.00;99.90
43810;DHT22;29440;48.208;11.162;2023-05-07T01:29:29;12.00;99.90
43810;DHT22;29440;48.208;11.162;2023-05-07T01:31:57;12.10;99.90
43810;DHT22;29440;48.208;11.162;2023-05-07T01:34:25;12.00;99.90
43810;DHT22;29440;48.208;11.162;2023-05-07T01:36:53;12.00;99.90
43810;DHT22;29440;48.208;11.162;2023-05-07T01:39:21;12.10;99.90
43810;DHT22;29440;48.208;11.162;2023-05-07T01:41:47;12.10;99.90
43810;DHT22;29440;48.208;11.162;2023-05-07T01:44:14;12.20;99.90
43810;DHT22;29440;48.208;11.162;2023-05-07T01:46:40;12.20;99.90
43810;DHT22;29440;48.208;11.162;2023-05-07T01:49:06;12.20;99.90
43810;DHT22;29440;48.208;11.162;2023-05-07T01:51:31;12.10;99.90
43810;DHT22;29440;48.208;11.162;2023-05-07T01:53:58;12.10;99.90
43810;DHT22;29440;48.208;11.162;2023-05-07T01:56:24;12.10;99.90
43810;DHT22;29440;48.208;11.162;2023-05-07T01:58:50;12.10;99.90
43810;DHT22;29440;48.208;11.162;2023-05-07T02:01:16;12.00;99.90
43810;DHT22;29440;48.208;11.162;2023-05-07T02:03:42;12.00;99.90
43810;DHT22;29440;48.208;11.162;2023-05-07T02:06:07;12.00;99.90
43810;DHT22;29440;48.208;11.162;2023-05-07T02:08:33;12.00;99.90
43810;DHT22;29440;48.208;11.162;2023-05-07T02:10:58;12.00;99.90
43810;DHT22;29440;48.208;11.162;2023-05-07T02:13:24;12.00;99.90
43810;DHT22;29440;48.208;11.162;2023-05-07T02:15:50;11.90;99.90
43810;DHT22;29440;48.208;11.162;2023-05-07T02:18:16;11.90;99.90
43810;DHT22;29440;48.208;11.162;2023-05-07T02:20:42;11.90;99.90
43810;DHT22;29440;48.208;11.162;2023-05-07T02:23:08;11.80;99.90
43810;DHT22;29440;48.208;11.162;2023-05-07T02:25:34;11.80;99.90
43810;DHT22;29440;48.208;11.162;2023-05-07T02:27:59;11.70;99.90
43810;DHT22;29440;48.208;11.162;2023-05-07T02:30:25;11.70;99.90
43810;DHT22;29440;48.208;11.162;2023-05-07T02:32:51;11.70;99.90
43810;DHT22;29440;48.208;11.162;2023-05-07T02:35:17;11.70;99.90
43810;DHT22;29440;48.208;11.162;2023-05-07T02:37:42;11.70;99.90
43810;DHT22;29440;48.208;11.162;2023-05-07T02:40:08;11.70;99.90
43810;DHT22;29440;48.208;11.162;2023-05-07T02:42:34;11.70;99.90
43810;DHT22;29440;48.208;11.162;2023-05-07T02:45:00;11.70;99.90
43810;DHT22;29440;48.208;11.162;2023-05-07T02:47:25;11.70;99.90
43810;DHT22;29440;48.208;11.162;2023-05-07T02:49:54;11.70;99.90
43810;DHT22;29440;48.208;11.162;2023-05-07T02:52:19;11.70;99.90
43810;DHT22;29440;48.208;11.162;2023-05-07T02:54:45;11.70;99.90
43810;DHT22;29440;48.208;11.162;2023-05-07T02:57:10;11.80;99.90
43810;DHT22;29440;48.208;11.162;2023-05-07T02:59:36;11.80;99.90
43810;DHT22;29440;48.208;11.162;2023-05-07T03:02:01;11.80;99.90
43810;DHT22;29440;48.208;11.162;2023-05-07T03:04:27;11.80;99.90
43810;DHT22;29440;48.208;11.162;2023-05-07T03:06:52;11.80;99.90
43810;DHT22;29440;48.208;11.162;2023-05-07T03:09:18;11.80;99.90
43810;DHT22;29440;48.208;11.162;2023-05-07T03:11:43;11.80;99.90
43810;DHT22;29440;48.208;11.162;2023-05-07T03:14:09;11.80;99.90
43810;DHT22;29440;48.208;11.162;2023-05-07T03:16:35;11.80;99.90
43810;DHT22;29440;48.208;11.162;2023-05-07T03:19:01;11.80;99.90
43810;DHT22;29440;48.208;11.162;2023-05-07T03:21:26;11.80;99.90
43810;DHT22;29440;48.208;11.162;2023-05-07T03:23:52;11.70;99.90
43810;DHT22;29440;48.208;11.162;2023-05-07T03:26:18;11.70;99.90
43810;DHT22;29440;48.208;11.162;2023-05-07T03:28:44;11.60;99.90
43810;DHT22;29440;48.208;11.162;2023-05-07T03:31:09;11.60;99.90
43810;DHT22;29440;48.208;11.162;2023-05-07T03:33:35;11.60;99.90
43810;DHT22;29440;48.208;11.162;2023-05-07T03:36:01;11.50;99.90
43810;DHT22;29440;48.208;11.162;2023-05-07T03:38:26;11.50;99.90
43810;DHT22;29440;48.208;11.162;2023-05-07T03:40:52;11.40;99.90
43810;DHT22;29440;48.208;11.162;2023-05-07T03:43:17;11.40;99.90
43810;DHT22;29440;48.208;11.162;2023-05-07T03:45:43;11.50;99.90
43810;DHT22;29440;48.208;11.162;2023-05-07T03:48:08;11.40;99.90
43810;DHT22;29440;48.208;11.162;2023-05-07T03:50:34;11.40;99.90
43810;DHT22;29440;48.208;11.162;2023-05-07T03:52:59;11.40;99.90
43810;DHT22;29440;48.208;11.162;2023-05-07T03:55:25;11.40;99.90
43810;DHT22;29440;48.208;11.162;2023-05-07T03:57:51;11.40;99.90
43810;DHT22;29440;48.208;11.162;2023-05-07T04:00:16;11.40;99.90
43810;DHT22;29440;48.208;11.162;2023-05-07T04:02:42;11.40;99.90
43810;DHT22;29440;48.208;11.162;2023-05-07T04:05:08;11.40;99.90
43810;DHT22;29440;48.208;11.162;2023-05-07T04:07:33;11.40;99.90
43810;DHT22;29440;48.208;11.162;2023-05-07T04:09:59;11.40;99.90
43810;DHT22;29440;48.208;11.162;2023-05-07T04:12:24;11.40;99.90
43810;DHT22;29440;48.208;11.162;2023-05-07T04:14:50;11.40;99.90
43810;DHT22;29440;48.208;11.162;2023-05-07T04:17:15;11.50;99.90
43810;DHT22;29440;48.208;11.162;2023-05-07T04:19:41;11.50;99.90
43810;DHT22;29440;48.208;11.162;2023-05-07T04:22:10;11.50;99.90
43810;DHT22;29440;48.208;11.162;2023-05-07T04:24:36;11.50;99.90
43810;DHT22;29440;48.208;11.162;2023-05-07T04:27:01;11.50;99.90
43810;DHT22;29440;48.208;11.162;2023-05-07T04:29:27;11.40;99.90
43810;DHT22;29440;48.208;11.162;2023-05-07T04:31:53;11.40;99.90
43810;DHT22;29440;48.208;11.162;2023-05-07T04:34:21;11.40;99.90
43810;DHT22;29440;48.208;11.162;2023-05-07T04:36:46;11.50;99.90
43810;DHT22;29440;48.208;11.162;2023-05-07T04:39:13;11.60;99.90
43810;DHT22;29440;48.208;11.162;2023-05-07T04:41:38;11.60;99.90
43810;DHT22;29440;48.208;11.162;2023-05-07T04:44:04;11.70;99.90
43810;DHT22;29440;48.208;11.162;2023-05-07T04:46:30;11.80;99.90
43810;DHT22;29440;48.208;11.162;2023-05-07T04:48:56;11.90;99.90
43810;DHT22;29440;48.208;11.162;2023-05-07T04:51:21;12.00;99.90
43810;DHT22;29440;48.208;11.162;2023-05-07T04:53:47;12.10;99.90
43810;DHT22;29440;48.208;11.162;2023-05-07T04:56:13;12.20;99.90
43810;DHT22;29440;48.208;11.162;2023-05-07T04:58:38;12.30;99.90
43810;DHT22;29440;48.208;11.162;2023-05-07T05:01:04;12.40;99.90
43810;DHT22;29440;48.208;11.162;2023-05-07T05:03:30;12.40;99.90
43810;DHT22;29440;48.208;11.162;2023-05-07T05:05:55;12.50;99.90
43810;DHT22;29440;48.208;11.162;2023-05-07T05:08:24;12.60;99.90
43810;DHT22;29440;48.208;11.162;2023-05-07T05:10:50;12.70;99.90
43810;DHT22;29440;48.208;11.162;2023-05-07T05:13:15;12.80;99.90
43810;DHT22;29440;48.208;11.162;2023-05-07T05:15:41;12.90;99.90
43810;DHT22;29440;48.208;11.162;2023-05-07T05:18:06;12.90;99.90
43810;DHT22;29440;48.208;11.162;2023-05-07T05:20:32;13.00;99.90
43810;DHT22;29440;48.208;11.162;2023-05-07T05:22:57;13.10;99.90
43810;DHT22;29440;48.208;11.162;2023-05-07T05:25:23;13.20;99.90
43810;DHT22;29440;48.208;11.162;2023-05-07T05:27:48;13.20;99.90
43810;DHT22;29440;48.208;11.162;2023-05-07T05:30:14;13.30;99.90
43810;DHT22;29440;48.208;11.162;2023-05-07T05:32:39;13.40;99.90
43810;DHT22;29440;48.208;11.162;2023-05-07T05:35:05;13.50;99.90
43810;DHT22;29440;48.208;11.162;2023-05-07T05:37:31;13.60;99.90
43810;DHT22;29440;48.208;11.162;2023-05-07T05:39:56;13.90;99.90
43810;DHT22;29440;48.208;11.162;2023-05-07T05:42:22;14.60;99.90
43810;DHT22;29440;48.208;11.162;2023-05-07T05:44:48;15.50;99.90
43810;DHT22;29440;48.208;11.162;2023-05-07T05:47:14;16.60;99.90
43810;DHT22;29440;48.208;11.162;2023-05-07T05:49:39;18.10;99.90
43810;DHT22;29440;48.208;11.162;2023-05-07T05:52:05;19.40;99.90
43810;DHT22;29440;48.208;11.162;2023-05-07T05:54:30;20.80;99.90
43810;DHT22;29440;48.208;11.162;2023-05-07T05:56:56;22.00;99.90
43810;DHT22;29440;48.208;11.162;2023-05-07T05:59:22;22.80;99.90
43810;DHT22;29440;48.208;11.162;2023-05-07T06:01:48;23.80;99.90
43810;DHT22;29440;48.208;11.162;2023-05-07T06:04:13;24.60;99.90
43810;DHT22;29440;48.208;11.162;2023-05-07T06:06:39;25.20;99.90
43810;DHT22;29440;48.208;11.162;2023-05-07T06:09:04;25.40;99.90
43810;DHT22;29440;48.208;11.162;2023-05-07T06:11:31;26.20;99.90
43810;DHT22;29440;48.208;11.162;2023-05-07T06:13:57;27.00;99.90
43810;DHT22;29440;48.208;11.162;2023-05-07T06:16:22;27.70;99.90
43810;DHT22;29440;48.208;11.162;2023-05-07T06:18:48;28.20;98.50
43810;DHT22;29440;48.208;11.162;2023-05-07T06:21:13;28.90;96.50
43810;DHT22;29440;48.208;11.162;2023-05-07T06:23:39;29.50;95.10
43810;DHT22;29440;48.208;11.162;2023-05-07T06:26:06;29.20;92.30
43810;DHT22;29440;48.208;11.162;2023-05-07T06:28:32;29.70;93.10
43810;DHT22;29440;48.208;11.162;2023-05-07T06:31:14;29.90;91.70
43810;DHT22;29440;48.208;11.162;2023-05-07T06:33:40;30.00;92.00
43810;DHT22;29440;48.208;11.162;2023-05-07T06:36:06;30.00;90.20
43810;DHT22;29440;48.208;11.162;2023-05-07T06:38:31;30.30;91.20
43810;DHT22;29440;48.208;11.162;2023-05-07T06:40:57;30.30;90.80
43810;DHT22;29440;48.208;11.162;2023-05-07T06:43:22;30.20;91.30
43810;DHT22;29440;48.208;11.162;2023-05-07T06:45:48;30.00;89.70
43810;DHT22;29440;48.208;11.162;2023-05-07T06:48:13;30.10;89.60
43810;DHT22;29440;48.208;11.162;2023-05-07T06:50:39;30.50;88.90
43810;DHT22;29440;48.208;11.162;2023-05-07T06:53:05;30.80;87.10
43810;DHT22;29440;48.208;11.162;2023-05-07T06:55:30;30.40;85.60
43810;DHT22;29440;48.208;11.162;2023-05-07T06:57:56;30.70;86.60
43810;DHT22;29440;48.208;11.162;2023-05-07T07:00:23;30.80;85.50
43810;DHT22;29440;48.208;11.162;2023-05-07T07:02:49;30.80;84.20
43810;DHT22;29440;48.208;11.162;2023-05-07T07:05:14;30.90;84.70
43810;DHT22;29440;48.208;11.162;2023-05-07T07:07:40;31.10;82.80
43810;DHT22;29440;48.208;11.162;2023-05-07T07:10:06;31.70;82.70
43810;DHT22;29440;48.208;11.162;2023-05-07T07:12:31;31.80;79.10
43810;DHT22;29440;48.208;11.162;2023-05-07T07:14:57;31.90;80.90
43810;DHT22;29440;48.208;11.162;2023-05-07T07:17:22;31.40;80.90
43810;DHT22;29440;48.208;11.162;2023-05-07T07:19:48;30.90;79.90
43810;DHT22;29440;48.208;11.162;2023-05-07T07:22:13;30.90;80.80
43810;DHT22;29440;48.208;11.162;2023-05-07T07:24:39;31.20;79.90
43810;DHT22;29440;48.208;11.162;2023-05-07T07:27:04;31.10;79.20
43810;DHT22;29440;48.208;11.162;2023-05-07T07:29:30;31.30;78.80
43810;DHT22;29440;48.208;11.162;2023-05-07T07:31:56;30.70;77.60
43810;DHT22;29440;48.208;11.162;2023-05-07T07:34:21;31.10;78.10
43810;DHT22;29440;48.208;11.162;2023-05-07T07:36:47;31.00;77.80
43810;DHT22;29440;48.208;11.162;2023-05-07T07:39:13;30.50;78.20
43810;DHT22;29440;48.208;11.162;2023-05-07T07:41:38;30.50;77.50
43810;DHT22;29440;48.208;11.162;2023-05-07T07:44:04;29.90;78.70
43810;DHT22;29440;48.208;11.162;2023-05-07T07:46:32;29.30;79.80
43810;DHT22;29440;48.208;11.162;2023-05-07T07:48:58;29.20;80.40
43810;DHT22;29440;48.208;11.162;2023-05-07T07:51:25;29.00;82.40
43810;DHT22;29440;48.208;11.162;2023-05-07T07:53:51;28.80;81.40
43810;DHT22;29440;48.208;11.162;2023-05-07T07:56:17;27.80;82.50
43810;DHT22;29440;48.208;11.162;2023-05-07T07:58:42;27.50;84.50
43810;DHT22;29440;48.208;11.162;2023-05-07T08:01:08;27.40;85.00
43810;DHT22;29440;48.208;11.162;2023-05-07T08:03:33;27.10;86.20
43810;DHT22;29440;48.208;11.162;2023-05-07T08:05:59;26.90;87.60
43810;DHT22;29440;48.208;11.162;2023-05-07T08:08:25;26.40;86.90
43810;DHT22;29440;48.208;11.162;2023-05-07T08:10:50;26.00;85.70
43810;DHT22;29440;48.208;11.162;2023-05-07T08:13:17;25.40;88.60
43810;DHT22;29440;48.208;11.162;2023-05-07T08:15:43;24.80;91.40
43810;DHT22;29440;48.208;11.162;2023-05-07T08:18:08;24.60;91.80
43810;DHT22;29440;48.208;11.162;2023-05-07T08:20:34;24.30;92.30
43810;DHT22;29440;48.208;11.162;2023-05-07T08:23:04;24.10;93.00
43810;DHT22;29440;48.208;11.162;2023-05-07T08:25:33;24.00;93.50
43810;DHT22;29440;48.208;11.162;2023-05-07T08:27:58;23.80;93.90
43810;DHT22;29440;48.208;11.162;2023-05-07T08:30:24;24.00;93.90
43810;DHT22;29440;48.208;11.162;2023-05-07T08:32:49;23.70;94.30
43810;DHT22;29440;48.208;11.162;2023-05-07T08:35:15;23.70;94.70
43810;DHT22;29440;48.208;11.162;2023-05-07T08:37:40;23.70;95.30
43810;DHT22;29440;48.208;11.162;2023-05-07T08:40:06;23.80;94.20
43810;DHT22;29440;48.208;11.162;2023-05-07T08:42:35;23.60;94.10
43810;DHT22;29440;48.208;11.162;2023-05-07T08:45:02;23.30;94.90
43810;DHT22;29440;48.208;11.162;2023-05-07T08:47:42;23.30;94.70
43810;DHT22;29440;48.208;11.162;2023-05-07T08:50:10;23.20;95.70
43810;DHT22;29440;48.208;11.162;2023-05-07T08:52:36;23.20;95.60
43810;DHT22;29440;48.208;11.162;2023-05-07T08:55:02;23.20;94.90
43810;DHT22;29440;48.208;11.162;2023-05-07T08:57:28;23.20;95.20
43810;DHT22;29440;48.208;11.162;2023-05-07T08:59:54;23.10;94.90
43810;DHT22;29440;48.208;11.162;2023-05-07T09:02:19;23.10;95.50
43810;DHT22;29440;48.208;11.162;2023-05-07T09:04:45;23.10;94.60
43810;DHT22;29440;48.208;11.162;2023-05-07T09:07:11;22.90;93.70
43810;DHT22;29440;48.208;11.162;2023-05-07T09:09:37;22.90;94.70
43810;DHT22;29440;48.208;11.162;2023-05-07T09:12:03;22.90;95.50
43810;DHT22;29440;48.208;11.162;2023-05-07T09:14:29;22.80;96.50
43810;DHT22;29440;48.208;11.162;2023-05-07T09:16:56;22.90;96.40
43810;DHT22;29440;48.208;11.162;2023-05-07T09:19:26;23.00;95.20
43810;DHT22;29440;48.208;11.162;2023-05-07T09:22:02;23.10;95.00
43810;DHT22;29440;48.208;11.162;2023-05-07T09:24:28;23.10;94.50
43810;DHT22;29440;48.208;11.162;2023-05-07T09:27:01;23.20;94.30
43810;DHT22;29440;48.208;11.162;2023-05-07T09:29:28;23.20;93.90
43810;DHT22;29440;48.208;11.162;2023-05-07T09:31:55;23.20;94.70
43810;DHT22;29440;48.208;11.162;2023-05-07T09:34:21;23.30;95.10
43810;DHT22;29440;48.208;11.162;2023-05-07T09:36:47;23.30;94.20
43810;DHT22;29440;48.208;11.162;2023-05-07T09:39:13;23.20;94.00
43810;DHT22;29440;48.208;11.162;2023-05-07T09:41:46;23.10;94.70
43810;DHT22;29440;48.208;11.162;2023-05-07T09:44:13;23.10;95.50
43810;DHT22;29440;48.208;11.162;2023-05-07T09:46:42;23.20;95.00
43810;DHT22;29440;48.208;11.162;2023-05-07T09:49:13;23.10;94.70
43810;DHT22;29440;48.208;11.162;2023-05-07T09:51:48;23.00;94.70
43810;DHT22;29440;48.208;11.162;2023-05-07T09:54:15;22.90;94.80
43810;DHT22;29440;48.208;11.162;2023-05-07T09:56:40;22.80;95.00
43810;DHT22;29440;48.208;11.162;2023-05-07T09:59:08;22.90;95.10
43810;DHT22;29440;48.208;11.162;2023-05-07T10:01:36;23.00;94.70
43810;DHT22;29440;48.208;11.162;2023-05-07T10:04:02;23.00;94.00
43810;DHT22;29440;48.208;11.162;2023-05-07T10:06:30;23.00;94.90
43810;DHT22;29440;48.208;11.162;2023-05-07T10:08:56;23.10;94.80
43810;DHT22;29440;48.208;11.162;2023-05-07T10:11:22;23.10;94.40
43810;DHT22;29440;48.208;11.162;2023-05-07T10:13:48;23.30;94.10
43810;DHT22;29440;48.208;11.162;2023-05-07T10:16:14;23.20;94.00
43810;DHT22;29440;48.208;11.162;2023-05-07T10:18:41;23.10;94.70
43810;DHT22;29440;48.208;11.162;2023-05-07T10:21:20;23.10;94.10
43810;DHT22;29440;48.208;11.162;2023-05-07T10:23:49;23.00;93.60
43810;DHT22;29440;48.208;11.162;2023-05-07T10:26:17;23.10;94.00
43810;DHT22;29440;48.208;11.162;2023-05-07T10:28:46;23.10;94.00
43810;DHT22;29440;48.208;11.162;2023-05-07T10:31:48;23.00;93.90
43810;DHT22;29440;48.208;11.162;2023-05-07T10:34:21;23.00;94.60
43810;DHT22;29440;48.208;11.162;2023-05-07T10:36:48;23.00;94.40
43810;DHT22;29440;48.208;11.162;2023-05-07T10:39:15;22.90;93.90
43810;DHT22;29440;48.208;11.162;2023-05-07T10:41:40;22.90;94.20
43810;DHT22;29440;48.208;11.162;2023-05-07T10:44:06;22.90;94.20
43810;DHT22;29440;48.208;11.162;2023-05-07T10:46:31;23.10;94.50
43810;DHT22;29440;48.208;11.162;2023-05-07T10:51:26;23.20;94.40
43810;DHT22;29440;48.208;11.162;2023-05-07T10:56:43;23.30;92.40
43810;DHT22;29440;48.208;11.162;2023-05-07T11:01:54;23.50;92.50
43810;DHT22;29440;48.208;11.162;2023-05-07T11:04:20;23.40;92.90
43810;DHT22;29440;48.208;11.162;2023-05-07T11:09:57;23.40;92.30
43810;DHT22;29440;48.208;11.162;2023-05-07T11:15:06;23.40;92.60
43810;DHT22;29440;48.208;11.162;2023-05-07T11:17:32;23.50;92.90
43810;DHT22;29440;48.208;11.162;2023-05-07T11:20:00;23.60;92.10
43810;DHT22;29440;48.208;11.162;2023-05-07T11:25:03;23.50;91.70
43810;DHT22;29440;48.208;11.162;2023-05-07T11:27:29;23.50;91.70
43810;DHT22;29440;48.208;11.162;2023-05-07T11:29:55;23.60;91.60
43810;DHT22;29440;48.208;11.162;2023-05-07T11:32:25;23.60;91.20
43810;DHT22;29440;48.208;11.162;2023-05-07T11:34:52;23.70;91.10
43810;DHT22;29440;48.208;11.162;2023-05-07T11:37:18;23.70;91.50
43810;DHT22;29440;48.208;11.162;2023-05-07T11:39:44;23.50;91.00
43810;DHT22;29440;48.208;11.162;2023-05-07T11:42:29;23.60;91.30
43810;DHT22;29440;48.208;11.162;2023-05-07T11:44:55;23.60;90.90
43810;DHT22;29440;48.208;11.162;2023-05-07T11:47:21;23.60;90.90
43810;DHT22;29440;48.208;11.162;2023-05-07T11:49:51;23.60;90.80
43810;DHT22;29440;48.208;11.162;2023-05-07T11:52:18;23.50;90.60
43810;DHT22;29440;48.208;11.162;2023-05-07T11:54:50;23.60;91.60
43810;DHT22;29440;48.208;11.162;2023-05-07T11:57:16;23.40;90.70
43810;DHT22;29440;48.208;11.162;2023-05-07T11:59:42;23.40;91.60
43810;DHT22;29440;48.208;11.162;2023-05-07T12:02:09;23.30;90.90
43810;DHT22;29440;48.208;11.162;2023-05-07T12:04:35;23.10;90.90
43810;DHT22;29440;48.208;11.162;2023-05-07T12:07:01;23.10;91.40
43810;DHT22;29440;48.208;11.162;2023-05-07T12:09:27;23.00;91.20
43810;DHT22;29440;48.208;11.162;2023-05-07T12:11:52;23.00;91.50
43810;DHT22;29440;48.208;11.162;2023-05-07T12:14:18;23.00;91.10
43810;DHT22;29440;48.208;11.162;2023-05-07T12:16:44;23.10;91.40
43810;DHT22;29440;48.208;11.162;2023-05-07T12:19:11;23.10;91.30
43810;DHT22;29440;48.208;11.162;2023-05-07T12:21:40;23.10;91.80
43810;DHT22;29440;48.208;11.162;2023-05-07T12:24:06;23.10;91.20
43810;DHT22;29440;48.208;11.162;2023-05-07T12:26:40;23.20;91.20
43810;DHT22;29440;48.208;11.162;2023-05-07T12:29:06;23.30;91.80
43810;DHT22;29440;48.208;11.162;2023-05-07T12:31:32;23.20;91.00
43810;DHT22;29440;48.208;11.162;2023-05-07T12:33:57;23.10;90.80
43810;DHT22;29440;48.208;11.162;2023-05-07T12:36:23;23.00;91.40
43810;DHT22;29440;48.208;11.162;2023-05-07T12:38:51;23.00;92.00
43810;DHT22;29440;48.208;11.162;2023-05-07T12:41:19;23.30;91.60
43810;DHT22;29440;48.208;11.162;2023-05-07T12:43:56;23.30;92.00
43810;DHT22;29440;48.208;11.162;2023-05-07T12:46:22;23.30;92.00
43810;DHT22;29440;48.208;11.162;2023-05-07T12:48:48;23.40;90.70
43810;DHT22;29440;48.208;11.162;2023-05-07T12:51:15;23.30;91.40
43810;DHT22;29440;48.208;11.162;2023-05-07T12:53:41;23.30;91.40
43810;DHT22;29440;48.208;11.162;2023-05-07T12:56:08;23.40;91.50
43810;DHT22;29440;48.208;11.162;2023-05-07T12:58:34;23.40;91.30
43810;DHT22;29440;48.208;11.162;2023-05-07T13:01:06;23.30;90.40
43810;DHT22;29440;48.208;11.162;2023-05-07T13:03:34;23.30;90.80
43810;DHT22;29440;48.208;11.162;2023-05-07T13:06:02;23.30;90.60
43810;DHT22;29440;48.208;11.162;2023-05-07T13:08:36;23.20;90.90
43810;DHT22;29440;48.208;11.162;2023-05-07T13:11:03;23.20;91.40
43810;DHT22;29440;48.208;11.162;2023-05-07T13:13:35;23.10;91.60
43810;DHT22;29440;48.208;11.162;2023-05-07T13:16:01;23.30;91.70
43810;DHT22;29440;48.208;11.162;2023-05-07T13:18:28;23.10;91.20
43810;DHT22;29440;48.208;11.162;2023-05-07T13:20:54;23.10;91.10
43810;DHT22;29440;48.208;11.162;2023-05-07T13:23:20;23.10;90.80
43810;DHT22;29440;48.208;11.162;2023-05-07T13:25:45;23.10;91.40
43810;DHT22;29440;48.208;11.162;2023-05-07T13:28:11;23.10;91.70
43810;DHT22;29440;48.208;11.162;2023-05-07T13:30:56;23.10;91.20
43810;DHT22;29440;48.208;11.162;2023-05-07T13:33:21;23.00;91.00
43810;DHT22;29440;48.208;11.162;2023-05-07T13:35:47;22.90;91.20
43810;DHT22;29440;48.208;11.162;2023-05-07T13:38:13;22.80;91.20
43810;DHT22;29440;48.208;11.162;2023-05-07T13:40:38;22.70;91.40
43810;DHT22;29440;48.208;11.162;2023-05-07T13:43:05;22.60;91.70
43810;DHT22;29440;48.208;11.162;2023-05-07T13:45:31;22.60;92.00
43810;DHT22;29440;48.208;11.162;2023-05-07T13:47:57;22.60;91.40
43810;DHT22;29440;48.208;11.162;2023-05-07T13:50:22;22.60;91.60
43810;DHT22;29440;48.208;11.162;2023-05-07T13:52:48;22.50;92.20
43810;DHT22;29440;48.208;11.162;2023-05-07T13:55:21;22.40;91.40
43810;DHT22;29440;48.208;11.162;2023-05-07T13:57:47;22.40;91.90
43810;DHT22;29440;48.208;11.162;2023-05-07T14:00:13;22.20;91.90
43810;DHT22;29440;48.208;11.162;2023-05-07T14:02:40;22.30;91.60
43810;DHT22;29440;48.208;11.162;2023-05-07T14:05:06;22.30;91.90
43810;DHT22;29440;48.208;11.162;2023-05-07T14:07:32;22.20;91.70
43810;DHT22;29440;48.208;11.162;2023-05-07T14:09:57;22.20;91.80
43810;DHT22;29440;48.208;11.162;2023-05-07T14:12:23;22.20;92.20
43810;DHT22;29440;48.208;11.162;2023-05-07T14:14:49;22.10;92.10
43810;DHT22;29440;48.208;11.162;2023-05-07T14:17:16;22.20;92.60
43810;DHT22;29440;48.208;11.162;2023-05-07T14:19:42;22.10;92.30
43810;DHT22;29440;48.208;11.162;2023-05-07T14:22:08;22.10;92.70
43810;DHT22;29440;48.208;11.162;2023-05-07T14:24:33;22.10;93.50
43810;DHT22;29440;48.208;11.162;2023-05-07T14:26:59;22.10;93.60
43810;DHT22;29440;48.208;11.162;2023-05-07T14:29:25;22.20;94.00
43810;DHT22;29440;48.208;11.162;2023-05-07T14:31:51;22.10;93.70
43810;DHT22;29440;48.208;11.162;2023-05-07T14:34:16;22.10;94.00
43810;DHT22;29440;48.208;11.162;2023-05-07T14:36:42;22.10;94.20
43810;DHT22;29440;48.208;11.162;2023-05-07T14:39:09;22.00;93.80
43810;DHT22;29440;48.208;11.162;2023-05-07T14:41:35;22.00;93.70
43810;DHT22;29440;48.208;11.162;2023-05-07T14:44:00;21.90;94.00
43810;DHT22;29440;48.208;11.162;2023-05-07T14:46:27;21.90;94.00
43810;DHT22;29440;48.208;11.162;2023-05-07T14:48:52;21.90;94.20
43810;DHT22;29440;48.208;11.162;2023-05-07T14:51:18;21.90;94.10
43810;DHT22;29440;48.208;11.162;2023-05-07T14:53:44;21.80;94.60
43810;DHT22;29440;48.208;11.162;2023-05-07T14:56:10;21.90;94.90
43810;DHT22;29440;48.208;11.162;2023-05-07T14:58:35;21.90;94.60
43810;DHT22;29440;48.208;11.162;2023-05-07T15:01:01;21.80;95.00
43810;DHT22;29440;48.208;11.162;2023-05-07T15:03:27;21.90;94.80
43810;DHT22;29440;48.208;11.162;2023-05-07T15:05:53;21.80;94.60
43810;DHT22;29440;48.208;11.162;2023-05-07T15:08:19;21.80;95.00
43810;DHT22;29440;48.208;11.162;2023-05-07T15:10:45;21.70;94.80
43810;DHT22;29440;48.208;11.162;2023-05-07T15:13:11;21.70;95.10
43810;DHT22;29440;48.208;11.162;2023-05-07T15:15:38;21.70;94.90
43810;DHT22;29440;48.208;11.162;2023-05-07T15:18:04;21.70;95.10
43810;DHT22;29440;48.208;11.162;2023-05-07T15:20:30;21.70;94.50
43810;DHT22;29440;48.208;11.162;2023-05-07T15:22:55;21.70;94.10
43810;DHT22;29440;48.208;11.162;2023-05-07T15:25:53;21.60;94.30
43810;DHT22;29440;48.208;11.162;2023-05-07T15:28:35;21.40;94.10